Time;durP1;ratioP1;P1;durP2;ratioP2;P2;SDS_P1;SDS_P2;PMS_P1;PMS_P2;Temp;Humidity;BMP_temperature;BMP_pressure;BME280_temperature;BME280_humidity;BME280_pressure;Samples;Min_cycle;Max_cycle;Signal;HPM_P1;HPM_P2
2022/05/17 00:00:00;;;;;;;6.38;2.35;;;19.60;99.90;;;;;;4982368;28;20027;-80
2022/05/17 00:02:26;;;;;;;6.85;2.47;;;19.60;99.90;;;;;;4981867;28;20031;-81
2022/05/17 00:04:52;;;;;;;6.47;2.83;;;19.60;99.90;;;;;;4982493;28;20081;-80
2022/05/17 00:07:18;;;;;;;9.25;2.92;;;19.60;99.90;;;;;;4984857;28;20023;-78
2022/05/17 00:09:44;;;;;;;6.07;2.53;;;19.50;99.90;;;;;;4986992;28;20034;-78
2022/05/17 00:12:10;;;;;;;7.43;2.67;;;19.60;99.90;;;;;;4987966;28;20030;-79
2022/05/17 00:14:36;;;;;;;4.07;2.70;;;19.50;99.90;;;;;;4986463;28;20034;-80
2022/05/17 00:17:02;;;;;;;8.65;2.38;;;19.50;99.90;;;;;;4984314;28;20097;-80
2022/05/17 00:19:29;;;;;;;5.82;2.20;;;19.60;99.90;;;;;;4987279;28;20026;-79
2022/05/17 00:21:55;;;;;;;11.90;2.65;;;19.50;99.90;;;;;;4995422;28;20038;-80
2022/05/17 00:24:24;;;;;;;5.55;2.38;;;19.50;99.90;;;;;;5003087;28;20050;-78
2022/05/17 00:26:50;;;;;;;5.20;1.98;;;19.50;99.90;;;;;;5003364;28;20074;-80
2022/05/17 00:29:16;;;;;;;7.63;2.40;;;19.50;99.90;;;;;;5001468;28;20091;-78
2022/05/17 00:31:42;;;;;;;4.22;2.28;;;19.60;99.90;;;;;;5001834;28;20098;-78
2022/05/17 00:34:08;;;;;;;6.07;2.22;;;19.60;99.90;;;;;;5000631;28;20027;-78
2022/05/17 00:36:35;;;;;;;3.08;1.83;;;19.50;99.90;;;;;;5002881;28;20030;-79
2022/05/17 00:39:01;;;;;;;5.82;2.10;;;19.50;99.90;;;;;;5001678;28;20038;-79
2022/05/17 00:41:27;;;;;;;3.72;2.50;;;19.60;99.90;;;;;;4991905;28;20458;-79
2022/05/17 00:46:52;;;;;;;4.85;2.10;;;19.60;99.90;;;;;;4989947;28;20062;-78
2022/05/17 00:49:40;;;;;;;5.55;2.17;;;19.60;99.90;;;;;;4989281;28;20045;-78
2022/05/17 00:52:16;;;;;;;6.72;2.38;;;19.60;99.90;;;;;;4990713;28;20031;-81
2022/05/17 00:54:43;;;;;;;3.92;2.05;;;19.60;99.90;;;;;;4974407;28;20027;-79
2022/05/17 00:57:26;;;;;;;6.60;2.20;;;19.70;99.90;;;;;;4973673;28;20026;-79
2022/05/17 00:59:52;;;;;;;4.00;2.20;;;19.70;99.90;;;;;;4986401;28;20431;-79
2022/05/17 01:02:18;;;;;;;3.75;2.22;;;19.60;99.90;;;;;;4985826;28;20530;-80
2022/05/17 01:04:44;;;;;;;6.40;1.85;;;19.60;99.90;;;;;;4985894;28;20038;-80
2022/05/17 01:07:22;;;;;;;8.82;1.98;;;19.60;99.90;;;;;;4985327;28;20019;-81
2022/05/17 01:09:48;;;;;;;4.35;2.00;;;19.60;99.90;;;;;;4967261;28;20031;-81
2022/05/17 01:12:14;;;;;;;6.18;2.40;;;19.60;99.90;;;;;;4985636;28;20026;-81
2022/05/17 01:14:58;;;;;;;4.70;2.20;;;19.60;99.90;;;;;;4984456;28;20121;-80
2022/05/17 01:17:34;;;;;;;4.73;2.23;;;19.50;99.90;;;;;;4990793;28;20090;-80
2022/05/17 01:20:03;;;;;;;4.25;2.03;;;19.60;99.90;;;;;;4990678;28;20034;-81
2022/05/17 01:22:28;;;;;;;4.82;2.38;;;19.60;99.90;;;;;;4988076;28;20475;-80
2022/05/17 01:24:54;;;;;;;5.93;2.10;;;19.60;99.90;;;;;;4983729;28;20049;-82
2022/05/17 01:27:29;;;;;;;5.13;2.63;;;19.60;99.90;;;;;;4982531;28;20030;-81
2022/05/17 01:29:55;;;;;;;7.28;2.80;;;19.60;99.90;;;;;;4983448;28;20034;-80
2022/05/17 01:32:22;;;;;;;7.32;2.33;;;19.60;99.90;;;;;;5001520;28;20106;-79
2022/05/17 01:34:48;;;;;;;5.78;2.05;;;19.60;99.90;;;;;;4996637;28;20399;-83
2022/05/17 01:37:14;;;;;;;7.00;1.77;;;19.50;99.90;;;;;;4981326;28;20034;-81
2022/05/17 01:39:41;;;;;;;7.18;2.65;;;19.60;99.90;;;;;;4980704;28;20125;-80
2022/05/17 01:42:10;;;;;;;5.18;2.15;;;19.50;99.90;;;;;;4983955;28;20019;-80
2022/05/17 01:44:36;;;;;;;4.93;2.60;;;19.50;99.90;;;;;;4980333;28;20030;-81
2022/05/17 01:47:02;;;;;;;6.93;2.55;;;19.50;99.90;;;;;;4982196;28;20025;-83
2022/05/17 01:49:28;;;;;;;7.95;2.22;;;19.50;99.90;;;;;;4982338;28;20065;-80
2022/05/17 01:51:54;;;;;;;4.82;2.45;;;19.50;99.90;;;;;;4983546;28;20030;-81
2022/05/17 01:54:20;;;;;;;9.25;2.67;;;19.50;99.90;;;;;;4984365;28;20035;-79
2022/05/17 01:56:47;;;;;;;6.28;2.50;;;19.40;99.90;;;;;;4984999;28;20058;-80
2022/05/17 01:59:13;;;;;;;7.85;2.28;;;19.40;99.90;;;;;;4981706;28;20039;-80
2022/05/17 02:01:39;;;;;;;5.85;2.10;;;19.40;99.90;;;;;;4982189;28;20158;-81
2022/05/17 02:04:05;;;;;;;4.80;2.20;;;19.40;99.90;;;;;;4980868;28;20034;-81
2022/05/17 02:06:31;;;;;;;5.25;2.45;;;19.30;99.90;;;;;;4981503;28;20027;-81
2022/05/17 02:08:58;;;;;;;5.45;2.92;;;19.40;99.90;;;;;;4980257;28;20018;-79
2022/05/17 02:11:24;;;;;;;8.48;2.92;;;19.30;99.90;;;;;;4992197;28;20038;-79
2022/05/17 02:13:50;;;;;;;10.50;2.95;;;19.20;99.90;;;;;;4999553;28;20046;-78
2022/05/17 02:16:16;;;;;;;8.35;2.80;;;19.10;99.90;;;;;;4998422;28;20031;-79
2022/05/17 02:18:41;;;;;;;11.15;2.50;;;19.10;99.90;;;;;;4999057;28;20038;-80
2022/05/17 02:21:08;;;;;;;3.85;2.53;;;19.10;99.90;;;;;;4998876;28;20074;-80
2022/05/17 02:23:34;;;;;;;5.35;2.30;;;19.00;99.90;;;;;;4981765;28;20095;-80
2022/05/17 02:26:00;;;;;;;3.72;1.90;;;19.00;99.90;;;;;;4998369;28;20030;-79
2022/05/17 02:28:25;;;;;;;6.57;2.60;;;19.00;99.90;;;;;;4996848;28;20027;-79
2022/05/17 02:30:51;;;;;;;4.57;2.05;;;19.00;99.90;;;;;;4985235;28;20050;-79
2022/05/17 02:33:17;;;;;;;8.63;2.88;;;19.00;99.90;;;;;;4987145;28;20027;-81
2022/05/17 02:35:43;;;;;;;8.10;2.63;;;19.00;99.90;;;;;;4981321;28;20033;-79
2022/05/17 02:38:09;;;;;;;6.43;2.40;;;19.00;99.90;;;;;;4979302;28;20058;-82
2022/05/17 02:40:36;;;;;;;6.53;2.22;;;19.00;99.90;;;;;;4979792;28;20030;-80
2022/05/17 02:43:03;;;;;;;7.10;2.25;;;19.00;99.90;;;;;;4980969;28;20022;-80
2022/05/17 02:45:29;;;;;;;10.93;2.63;;;19.00;99.90;;;;;;4984820;28;20023;-80
2022/05/17 02:47:55;;;;;;;6.30;2.67;;;19.00;99.90;;;;;;4986365;28;20034;-78
2022/05/17 02:50:21;;;;;;;4.38;2.17;;;19.00;99.90;;;;;;4989525;28;20050;-80
2022/05/17 02:52:47;;;;;;;6.65;2.53;;;19.00;99.90;;;;;;4987494;28;20043;-79
2022/05/17 02:55:14;;;;;;;7.30;2.50;;;19.00;99.90;;;;;;4985006;28;20077;-82
2022/05/17 02:57:40;;;;;;;5.88;2.85;;;18.90;99.90;;;;;;4979245;28;20042;-78
2022/05/17 03:00:10;;;;;;;5.72;2.30;;;18.90;99.90;;;;;;4978548;28;20023;-80
2022/05/17 03:02:36;;;;;;;5.78;2.08;;;19.00;99.90;;;;;;4977474;28;20023;-80
2022/05/17 03:05:01;;;;;;;5.32;2.20;;;19.00;99.90;;;;;;4983296;28;20041;-81
2022/05/17 03:07:27;;;;;;;6.32;2.30;;;19.00;99.90;;;;;;4976546;28;20027;-78
2022/05/17 03:09:53;;;;;;;5.63;2.60;;;19.00;99.90;;;;;;4978067;28;20086;-80
2022/05/17 03:12:18;;;;;;;6.72;2.25;;;19.00;99.90;;;;;;4977004;28;20041;-80
2022/05/17 03:14:44;;;;;;;4.10;2.13;;;19.00;99.90;;;;;;5001486;23;20027;-84
2022/05/17 03:17:15;;;;;;;5.25;2.50;;;19.10;99.90;;;;;;4980496;28;20026;-85
2022/05/17 03:19:42;;;;;;;15.43;2.58;;;19.00;99.90;;;;;;4980639;28;20047;-85
2022/05/17 03:22:07;;;;;;;11.00;3.28;;;19.00;99.90;;;;;;4980816;28;20027;-84
2022/05/17 03:24:34;;;;;;;8.05;2.65;;;19.00;99.90;;;;;;4980172;28;20066;-86
2022/05/17 03:27:01;;;;;;;8.30;3.03;;;18.90;99.90;;;;;;4980094;28;20019;-86
2022/05/17 03:29:27;;;;;;;7.30;2.63;;;18.80;99.90;;;;;;4963894;28;20015;-85
2022/05/17 03:31:52;;;;;;;10.68;3.25;;;18.80;99.90;;;;;;4980541;28;20035;-87
2022/05/17 03:34:18;;;;;;;9.13;3.38;;;18.60;99.90;;;;;;4980384;28;20028;-85
2022/05/17 03:36:44;;;;;;;6.78;3.33;;;18.40;99.90;;;;;;4980376;28;20195;-87
2022/05/17 03:39:10;;;;;;;8.95;2.90;;;18.30;99.90;;;;;;4980424;28;20042;-86
2022/05/17 03:41:36;;;;;;;7.57;3.20;;;18.20;99.90;;;;;;4963908;29;20102;-86
2022/05/17 03:44:03;;;;;;;6.38;3.13;;;18.00;99.90;;;;;;4980330;28;20024;-85
2022/05/17 03:46:28;;;;;;;8.93;3.25;;;18.00;99.90;;;;;;4980252;28;20023;-84
2022/05/17 03:48:54;;;;;;;8.20;3.88;;;17.80;99.90;;;;;;4979360;28;20023;-85
2022/05/17 03:51:21;;;;;;;10.27;3.83;;;17.80;99.90;;;;;;4971534;28;20027;-86
2022/05/17 03:53:48;;;;;;;9.20;4.30;;;17.70;99.90;;;;;;4968037;28;20035;-86
2022/05/17 03:56:14;;;;;;;15.00;4.55;;;17.60;99.90;;;;;;4968455;28;20110;-86
2022/05/17 03:58:40;;;;;;;11.00;5.03;;;17.30;99.90;;;;;;4977414;28;20031;-87
2022/05/17 04:01:06;;;;;;;17.10;5.28;;;17.10;99.90;;;;;;4970819;28;20039;-86
2022/05/17 04:03:33;;;;;;;11.48;4.38;;;17.00;99.90;;;;;;4969948;29;20039;-85
2022/05/17 04:05:59;;;;;;;11.40;4.22;;;16.90;99.90;;;;;;4954965;29;20091;-86
2022/05/17 04:08:25;;;;;;;9.70;4.53;;;16.80;99.90;;;;;;4979618;28;20059;-87
2022/05/17 04:10:51;;;;;;;17.05;4.88;;;16.80;99.90;;;;;;4980200;28;20011;-87
2022/05/17 04:13:17;;;;;;;8.07;4.30;;;16.70;99.90;;;;;;4974161;28;20035;-85
2022/05/17 04:15:43;;;;;;;12.75;5.07;;;16.70;99.90;;;;;;4976703;29;20015;-86
2022/05/17 04:18:09;;;;;;;11.70;5.22;;;16.70;99.90;;;;;;4978597;28;20027;-87
2022/05/17 04:20:35;;;;;;;8.13;4.47;;;16.70;99.90;;;;;;4978965;28;20031;-88
2022/05/17 04:23:01;;;;;;;11.25;4.35;;;16.60;99.90;;;;;;4978987;28;20044;-88
2022/05/17 04:25:27;;;;;;;8.00;4.55;;;16.60;99.90;;;;;;4978970;28;20034;-87
2022/05/17 04:27:55;;;;;;;8.68;4.70;;;16.60;99.90;;;;;;4978970;28;20019;-87
2022/05/17 04:30:22;;;;;;;14.02;6.38;;;16.60;99.90;;;;;;4963025;28;20026;-88
2022/05/17 04:32:48;;;;;;;8.00;4.57;;;16.70;99.90;;;;;;4978750;28;20055;-87
2022/05/17 04:35:15;;;;;;;8.65;4.07;;;16.70;99.90;;;;;;4979598;28;20038;-88
2022/05/17 04:37:42;;;;;;;10.30;4.75;;;16.70;99.90;;;;;;4978959;28;20020;-87
2022/05/17 04:40:10;;;;;;;11.60;4.60;;;16.80;99.90;;;;;;4979209;28;20106;-87
2022/05/17 04:42:38;;;;;;;7.93;4.07;;;16.80;99.90;;;;;;4979323;28;20016;-87
2022/05/17 04:45:06;;;;;;;9.90;4.43;;;16.80;99.90;;;;;;4962713;28;20087;-87
2022/05/17 04:47:32;;;;;;;8.10;4.68;;;16.90;99.90;;;;;;4979770;28;20039;-87
2022/05/17 04:49:58;;;;;;;7.25;3.42;;;16.90;99.90;;;;;;4963033;28;20027;-87
2022/05/17 04:52:25;;;;;;;8.50;4.10;;;16.90;99.90;;;;;;4979554;28;20078;-87
2022/05/17 04:54:51;;;;;;;6.03;3.55;;;17.00;99.90;;;;;;4978962;28;20016;-89
2022/05/17 04:57:17;;;;;;;5.22;3.00;;;17.00;99.90;;;;;;4978804;28;20042;-87
2022/05/17 04:59:43;;;;;;;7.57;3.72;;;17.00;99.90;;;;;;4978520;28;20199;-87
2022/05/17 05:02:10;;;;;;;8.35;3.40;;;17.10;99.90;;;;;;4978851;28;20012;-88
2022/05/17 05:04:38;;;;;;;11.98;4.05;;;17.10;99.90;;;;;;4978602;28;20079;-87
2022/05/17 05:07:04;;;;;;;6.70;3.58;;;17.10;99.90;;;;;;4978975;28;20016;-88
2022/05/17 05:09:31;;;;;;;6.85;3.70;;;17.00;99.90;;;;;;4979920;28;20023;-87
2022/05/17 05:11:57;;;;;;;10.30;4.88;;;17.10;99.90;;;;;;4982028;28;20035;-87
2022/05/17 05:14:23;;;;;;;6.22;3.83;;;17.00;99.90;;;;;;4981629;28;20031;-86
2022/05/17 05:16:49;;;;;;;4.75;3.30;;;17.00;99.90;;;;;;4965867;28;20042;-88
2022/05/17 05:19:15;;;;;;;8.88;4.25;;;17.00;99.90;;;;;;4982551;28;20019;-88
2022/05/17 05:21:41;;;;;;;9.00;3.60;;;16.90;99.90;;;;;;4982866;28;20065;-87
2022/05/17 05:24:07;;;;;;;8.30;3.22;;;17.00;99.90;;;;;;4982763;28;20063;-88
2022/05/17 05:26:34;;;;;;;6.28;3.53;;;17.00;99.90;;;;;;4981783;28;20052;-84
2022/05/17 05:29:00;;;;;;;9.80;4.07;;;17.10;99.90;;;;;;4982095;28;20022;-85
2022/05/17 05:31:26;;;;;;;9.88;3.70;;;17.10;99.90;;;;;;4981490;28;20042;-88
2022/05/17 05:33:52;;;;;;;11.63;4.05;;;17.20;99.90;;;;;;4982303;28;20016;-87
2022/05/17 05:36:17;;;;;;;12.07;3.95;;;17.20;99.90;;;;;;4982164;28;20023;-88
2022/05/17 05:38:43;;;;;;;7.88;3.70;;;17.20;99.90;;;;;;4980539;28;20026;-88
2022/05/17 05:41:12;;;;;;;8.50;3.90;;;17.20;99.90;;;;;;4980399;28;20830;-88
2022/05/17 05:43:38;;;;;;;10.75;4.00;;;17.20;99.90;;;;;;4981185;28;20023;-88
2022/05/17 05:46:04;;;;;;;8.38;3.80;;;17.20;99.90;;;;;;4964741;29;20019;-87
2022/05/17 05:48:29;;;;;;;6.43;3.78;;;17.10;99.90;;;;;;4961821;29;20042;-87
2022/05/17 05:50:55;;;;;;;9.75;4.10;;;17.20;99.90;;;;;;4975621;29;20035;-88
2022/05/17 05:53:21;;;;;;;9.18;4.05;;;17.20;99.90;;;;;;4957088;29;20051;-88
2022/05/17 05:56:03;;;;;;;10.73;4.80;;;17.20;99.90;;;;;;4978396;28;20035;-87
2022/05/17 05:58:30;;;;;;;9.98;4.72;;;17.20;99.90;;;;;;4981615;28;20055;-88
2022/05/17 06:00:56;;;;;;;9.55;5.25;;;17.30;99.90;;;;;;4981285;28;20023;-88
2022/05/17 06:03:24;;;;;;;12.13;4.82;;;17.30;99.90;;;;;;4981187;28;20039;-87
2022/05/17 06:05:50;;;;;;;11.15;5.07;;;17.30;99.90;;;;;;4979657;28;20091;-88
2022/05/17 06:08:16;;;;;;;10.35;4.88;;;17.30;99.90;;;;;;4976454;28;20035;-87
2022/05/17 06:10:43;;;;;;;6.90;4.55;;;17.40;99.90;;;;;;4972259;28;20062;-86
2022/05/17 06:13:10;;;;;;;10.30;4.90;;;17.40;99.90;;;;;;4976848;28;20031;-87
2022/05/17 06:15:37;;;;;;;10.07;4.20;;;17.50;99.90;;;;;;4979891;28;20031;-87
2022/05/17 06:18:07;;;;;;;8.57;5.00;;;17.60;99.90;;;;;;4964170;28;20019;-89
2022/05/17 06:20:34;;;;;;;8.07;4.30;;;17.70;99.90;;;;;;4979547;28;20112;-87
2022/05/17 06:23:00;;;;;;;8.88;4.32;;;17.80;99.90;;;;;;4979984;28;20035;-87
2022/05/17 06:25:26;;;;;;;7.05;4.25;;;17.80;99.90;;;;;;4979545;28;20038;-88
2022/05/17 06:27:52;;;;;;;15.07;4.68;;;17.90;99.90;;;;;;4975667;28;20037;-89
2022/05/17 06:30:18;;;;;;;8.95;4.30;;;18.00;99.90;;;;;;4972288;29;20069;-88
2022/05/17 06:32:44;;;;;;;7.43;4.00;;;18.10;99.90;;;;;;4971004;29;20046;-87
2022/05/17 06:35:11;;;;;;;8.38;4.20;;;18.30;99.90;;;;;;4970244;29;20102;-88
2022/05/17 06:37:37;;;;;;;9.25;5.18;;;18.40;99.90;;;;;;4970919;28;20035;-89
2022/05/17 06:40:07;;;;;;;7.05;3.45;;;18.60;99.90;;;;;;4970732;29;20420;-87
2022/05/17 06:42:33;;;;;;;11.30;4.65;;;18.70;99.90;;;;;;4971217;28;20042;-88
2022/05/17 06:44:59;;;;;;;9.45;4.55;;;18.80;99.90;;;;;;4954079;29;20028;-88
2022/05/17 06:47:26;;;;;;;8.77;4.25;;;18.90;99.90;;;;;;4971831;29;20062;-88
2022/05/17 06:49:52;;;;;;;9.52;5.00;;;18.90;99.90;;;;;;4974270;28;20023;-88
2022/05/17 06:52:18;;;;;;;8.82;4.43;;;19.00;99.90;;;;;;4977365;28;20039;-88
2022/05/17 06:54:44;;;;;;;7.05;5.00;;;19.00;99.90;;;;;;4976980;28;20062;-89
2022/05/17 06:57:14;;;;;;;7.10;4.45;;;19.10;99.90;;;;;;4977521;28;20090;-88
2022/05/17 06:59:41;;;;;;;13.27;4.38;;;19.20;99.90;;;;;;4979000;28;20024;-89
2022/05/17 07:02:08;;;;;;;7.68;5.05;;;19.20;99.90;;;;;;4962562;29;20423;-88
2022/05/17 07:04:34;;;;;;;9.48;4.72;;;19.20;99.90;;;;;;4980375;28;20015;-88
2022/05/17 07:07:03;;;;;;;9.82;4.78;;;19.20;99.90;;;;;;4979494;28;20027;-90
2022/05/17 07:09:29;;;;;;;11.35;5.15;;;19.20;99.90;;;;;;4976828;28;20036;-87
2022/05/17 07:14:41;;;;;;;12.90;5.57;;;19.10;99.90;;;;;;4971468;29;20035;-87
2022/05/17 07:17:12;;;;;;;10.38;5.78;;;19.00;99.90;;;;;;4972605;28;20027;-87
2022/05/17 07:19:38;;;;;;;9.55;6.03;;;19.00;99.90;;;;;;4968456;29;20042;-86
2022/05/17 07:22:05;;;;;;;10.45;5.72;;;19.10;99.90;;;;;;4967947;28;20015;-88
2022/05/17 07:24:32;;;;;;;10.50;5.40;;;19.20;99.90;;;;;;4968247;28;20159;-88
2022/05/17 07:26:59;;;;;;;8.07;4.95;;;19.40;99.90;;;;;;4976849;28;20027;-87
2022/05/17 07:29:25;;;;;;;9.60;5.45;;;19.60;99.90;;;;;;4970201;28;20063;-88
2022/05/17 07:31:51;;;;;;;10.70;5.95;;;19.90;99.90;;;;;;4969449;28;20038;-87
2022/05/17 07:34:17;;;;;;;10.93;4.90;;;20.10;99.90;;;;;;4969833;28;20031;-87
2022/05/17 07:36:44;;;;;;;8.00;4.47;;;20.40;99.90;;;;;;4970831;28;20054;-88
2022/05/17 07:39:11;;;;;;;9.90;4.47;;;20.70;99.90;;;;;;4974114;28;20039;-88
2022/05/17 07:41:37;;;;;;;7.35;4.90;;;20.90;99.90;;;;;;4970327;29;20058;-89
2022/05/17 07:44:04;;;;;;;10.23;4.32;;;21.10;99.90;;;;;;4970628;29;20031;-89
2022/05/17 07:46:31;;;;;;;11.20;4.38;;;21.20;99.90;;;;;;4969099;28;20377;-87
2022/05/17 07:48:57;;;;;;;7.63;4.40;;;21.10;99.90;;;;;;4967958;29;20031;-89
2022/05/17 07:51:23;;;;;;;11.70;4.50;;;21.20;99.90;;;;;;4968655;28;20024;-88
2022/05/17 07:53:49;;;;;;;7.13;4.50;;;21.30;99.90;;;;;;4970189;28;20042;-90
2022/05/17 07:56:15;;;;;;;9.15;4.80;;;21.40;99.90;;;;;;4951898;29;20074;-91
2022/05/17 07:58:42;;;;;;;11.98;6.22;;;21.60;99.90;;;;;;4973193;28;20050;-88
2022/05/17 08:01:08;;;;;;;11.75;6.43;;;21.60;99.90;;;;;;4971133;28;20027;-88
2022/05/17 08:03:34;;;;;;;10.13;4.93;;;21.60;99.90;;;;;;4968361;29;20038;-88
2022/05/17 08:06:00;;;;;;;9.18;5.28;;;21.60;99.90;;;;;;4970110;29;20030;-87
2022/05/17 08:08:26;;;;;;;7.85;5.07;;;21.60;99.90;;;;;;4968698;28;20059;-87
2022/05/17 08:10:53;;;;;;;11.70;5.40;;;21.70;99.90;;;;;;4971720;28;20399;-88
2022/05/17 08:13:21;;;;;;;12.90;5.13;;;21.60;99.90;;;;;;4969691;28;20045;-86
2022/05/17 08:15:48;;;;;;;10.63;5.72;;;21.70;99.90;;;;;;4968909;28;20043;-87
2022/05/17 08:18:15;;;;;;;10.15;4.88;;;21.70;99.90;;;;;;4954505;29;20043;-88
2022/05/17 08:20:42;;;;;;;15.50;5.18;;;21.70;99.90;;;;;;4978994;28;20039;-88
2022/05/17 08:23:08;;;;;;;10.88;4.93;;;21.80;99.90;;;;;;4977502;28;20035;-88
2022/05/17 08:28:19;;;;;;;7.72;5.13;;;21.40;99.90;;;;;;4978795;28;20020;-88
2022/05/17 08:30:47;;;;;;;10.48;7.07;;;21.20;99.90;;;;;;4978710;28;20103;-88
2022/05/17 08:33:15;;;;;;;13.82;5.50;;;21.10;99.90;;;;;;4979205;28;20023;-90
2022/05/17 08:35:52;;;;;;;12.75;5.30;;;21.10;99.90;;;;;;4978415;28;20055;-86
2022/05/17 08:38:23;;;;;;;11.50;5.22;;;21.10;99.90;;;;;;4979263;28;20031;-88
2022/05/17 08:40:53;;;;;;;15.93;6.15;;;21.20;99.90;;;;;;4978325;28;20030;-89
2022/05/17 08:43:44;;;;;;;13.52;5.55;;;21.20;99.90;;;;;;4977695;28;20099;-87
2022/05/17 08:46:28;;;;;;;12.40;7.13;;;21.10;99.90;;;;;;4969469;29;20043;-88
2022/05/17 08:49:23;;;;;;;8.63;5.88;;;21.20;99.90;;;;;;4971405;28;20027;-88
2022/05/17 08:51:57;;;;;;;7.63;4.55;;;21.20;99.90;;;;;;4970901;28;20383;-87
2022/05/17 08:54:51;;;;;;;13.18;4.30;;;21.10;99.90;;;;;;4973736;29;20086;-88
2022/05/17 08:57:40;;;;;;;13.57;3.80;;;21.10;99.90;;;;;;4978113;28;20054;-87
2022/05/17 09:00:10;;;;;;;7.18;4.10;;;21.30;99.90;;;;;;4975587;28;20114;-86
2022/05/17 09:02:43;;;;;;;6.22;3.63;;;21.30;99.90;;;;;;4975923;28;20035;-90
2022/05/17 09:05:11;;;;;;;12.32;3.60;;;21.40;99.90;;;;;;4981096;29;20019;-87
2022/05/17 09:07:51;;;;;;;10.60;3.58;;;21.40;99.90;;;;;;4980808;28;20495;-87
2022/05/17 09:10:18;;;;;;;7.28;3.72;;;21.50;99.90;;;;;;4975194;28;20042;-89
2022/05/17 09:12:52;;;;;;;6.88;3.33;;;21.70;99.90;;;;;;4973457;28;20054;-87
2022/05/17 09:15:19;;;;;;;7.43;3.50;;;21.80;99.90;;;;;;5008194;23;20057;-80
2022/05/17 09:17:45;;;;;;;8.63;3.78;;;21.60;99.90;;;;;;4990553;28;20050;-80
2022/05/17 09:20:19;;;;;;;6.18;3.50;;;21.70;99.90;;;;;;4987874;28;20549;-82
2022/05/17 09:22:46;;;;;;;6.88;3.33;;;21.70;99.90;;;;;;4982067;28;20035;-81
2022/05/17 09:25:20;;;;;;;6.20;3.35;;;22.40;99.90;;;;;;4980832;28;20382;-82
2022/05/17 09:27:51;;;;;;;8.80;3.35;;;22.80;99.90;;;;;;4980778;28;20473;-81
2022/05/17 09:30:23;;;;;;;6.20;3.05;;;23.20;99.90;;;;;;4981686;28;20495;-79
2022/05/17 09:33:04;;;;;;;9.80;3.13;;;23.10;99.90;;;;;;4981733;28;20031;-82
2022/05/17 09:35:32;;;;;;;10.43;3.83;;;23.40;99.90;;;;;;4981912;28;20038;-81
2022/05/17 09:38:02;;;;;;;8.05;3.20;;;23.50;99.90;;;;;;4985052;28;20027;-81
2022/05/17 09:40:36;;;;;;;15.02;4.07;;;23.90;99.90;;;;;;4983433;28;20463;-80
2022/05/17 09:43:05;;;;;;;15.05;3.90;;;24.10;99.90;;;;;;4990288;28;20057;-81
2022/05/17 09:45:46;;;;;;;10.57;3.30;;;24.50;99.90;;;;;;4983102;28;20118;-82
2022/05/17 09:48:13;;;;;;;7.43;3.30;;;24.00;99.90;;;;;;4982967;28;20027;-80
2022/05/17 09:54:00;;;;;;;14.95;4.10;;;23.40;99.90;;;;;;4983514;28;20050;-82
2022/05/17 09:56:27;;;;;;;8.13;3.53;;;23.00;99.90;;;;;;4962462;28;20519;-81
2022/05/17 09:58:53;;;;;;;7.75;3.90;;;22.60;99.90;;;;;;4984378;28;20095;-81
2022/05/17 10:01:36;;;;;;;11.35;4.53;;;22.20;99.90;;;;;;4985281;28;20034;-82
2022/05/17 10:04:17;;;;;;;10.13;4.22;;;21.90;99.90;;;;;;4984096;28;20031;-82
2022/05/17 10:06:46;;;;;;;7.80;5.10;;;21.80;99.90;;;;;;4983244;28;20041;-82
2022/05/17 10:09:26;;;;;;;8.07;5.35;;;21.40;99.90;;;;;;4984730;28;20601;-82
2022/05/17 10:12:00;;;;;;;9.60;5.47;;;21.20;99.90;;;;;;4989238;28;20042;-80
2022/05/17 10:14:44;;;;;;;13.02;5.82;;;20.90;99.90;;;;;;4994401;28;20066;-81
2022/05/17 10:17:18;;;;;;;11.90;4.88;;;20.90;99.90;;;;;;4989511;28;20035;-80
2022/05/17 10:19:46;;;;;;;8.10;4.93;;;21.00;99.90;;;;;;4983157;28;20035;-81
2022/05/17 10:22:12;;;;;;;7.93;5.30;;;21.40;99.90;;;;;;4993158;28;20089;-82
2022/05/17 10:24:43;;;;;;;8.43;5.45;;;22.10;99.90;;;;;;4997103;28;20019;-79
2022/05/17 10:27:30;;;;;;;7.00;4.13;;;23.40;99.90;;;;;;4996058;28;20110;-80
2022/05/17 10:30:05;;;;;;;7.35;4.03;;;24.40;99.90;;;;;;4994326;28;20041;-80
2022/05/17 10:32:33;;;;;;;;;;;24.60;99.90;;;;;;4994545;28;20070;-81
2022/05/17 10:35:18;;;;;;;8.10;3.42;;;24.20;99.90;;;;;;4995396;28;19894;-80
2022/05/17 10:37:51;;;;;;;6.57;3.30;;;24.10;99.90;;;;;;4993762;28;20090;-80
2022/05/17 10:40:27;;;;;;;6.90;3.78;;;23.80;99.90;;;;;;4986270;28;20031;-80
2022/05/17 10:42:53;;;;;;;10.85;4.47;;;23.40;99.90;;;;;;4983979;28;20035;-82
2022/05/17 10:45:21;;;;;;;6.13;4.70;;;23.10;99.90;;;;;;4982071;28;20018;-81
2022/05/17 10:47:55;;;;;;;7.80;4.45;;;22.80;99.90;;;;;;4988680;28;20027;-81
2022/05/17 10:50:30;;;;;;;11.18;4.97;;;22.60;99.90;;;;;;4983050;28;20041;-84
2022/05/17 10:52:56;;;;;;;;;;;22.50;99.90;;;;;;4984590;28;20047;-80
2022/05/17 10:55:42;;;;;;;7.70;4.40;;;22.60;99.90;;;;;;4984184;28;19933;-81
2022/05/17 10:58:25;;;;;;;8.90;4.38;;;22.60;99.90;;;;;;4955505;28;20047;-83
2022/05/17 11:01:16;;;;;;;11.88;3.75;;;22.60;99.90;;;;;;4988379;28;20417;-82
2022/05/17 11:03:58;;;;;;;10.60;4.25;;;22.10;99.90;;;;;;4970476;28;20038;-82
2022/05/17 11:06:52;;;;;;;8.13;3.83;;;21.70;99.90;;;;;;4991999;28;20035;-81
2022/05/17 11:09:56;;;;;;;5.28;3.90;;;21.50;99.90;;;;;;4998231;28;20039;-79
2022/05/17 11:12:30;;;;;;;7.20;4.75;;;20.80;99.90;;;;;;4998991;28;20030;-81
2022/05/17 11:15:00;;;;;;;7.97;4.95;;;20.50;99.90;;;;;;4998663;28;20027;-80
2022/05/17 11:17:50;;;;;;;8.45;4.47;;;20.20;99.90;;;;;;4999407;28;20047;-80
2022/05/17 11:20:46;;;;;;;12.07;5.25;;;19.90;99.90;;;;;;4998083;28;20039;-81
2022/05/17 11:23:47;;;;;;;9.57;5.35;;;19.70;99.90;;;;;;4998977;28;20106;-80
2022/05/17 11:26:25;;;;;;;7.35;4.90;;;19.60;99.90;;;;;;4998029;28;20031;-80
2022/05/17 11:29:13;;;;;;;12.30;5.85;;;19.40;99.90;;;;;;4994163;28;20034;-81
2022/05/17 11:31:47;;;;;;;5.78;4.68;;;19.40;99.90;;;;;;4997559;28;20038;-78
2022/05/17 11:34:35;;;;;;;6.15;5.00;;;19.30;99.90;;;;;;4998015;28;20049;-80
2022/05/17 11:37:08;;;;;;;10.50;5.10;;;19.30;99.90;;;;;;4999015;28;20034;-82
2022/05/17 11:39:41;;;;;;;7.97;5.70;;;19.30;99.90;;;;;;4998744;28;20023;-80
2022/05/17 11:42:11;;;;;;;10.00;5.35;;;19.50;99.90;;;;;;4999169;28;20027;-81
2022/05/17 11:44:46;;;;;;;9.60;5.60;;;19.70;99.90;;;;;;4998133;28;20041;-81
2022/05/17 11:47:33;;;;;;;;;;;20.20;99.90;;;;;;4998327;28;20034;-81
2022/05/17 11:50:11;;;;;;;;;;;20.70;99.90;;;;;;4999032;28;19902;-81
2022/05/17 11:52:37;;;;;;;10.70;5.43;;;21.10;99.90;;;;;;4998544;28;19901;-80
2022/05/17 11:55:04;;;;;;;9.10;5.18;;;21.40;99.90;;;;;;4997836;28;20082;-82
2022/05/17 11:57:30;;;;;;;15.50;5.63;;;21.50;99.90;;;;;;4982285;28;20089;-81
2022/05/17 11:59:57;;;;;;;13.40;5.82;;;21.50;99.90;;;;;;4981140;28;20031;-82
2022/05/17 12:02:47;;;;;;;11.73;6.03;;;21.50;99.90;;;;;;4982203;28;20027;-81
2022/05/17 12:05:47;;;;;;;12.48;5.68;;;21.30;99.90;;;;;;4979435;28;20073;-82
2022/05/17 12:08:43;;;;;;;6.10;5.47;;;21.30;99.90;;;;;;4979733;28;20037;-81
2022/05/17 12:11:12;;;;;;;7.07;4.65;;;21.10;99.90;;;;;;4980858;28;20038;-81
2022/05/17 12:13:56;;;;;;;9.82;5.10;;;20.90;99.90;;;;;;4981932;28;20042;-82
2022/05/17 12:16:29;;;;;;;9.83;4.50;;;21.00;99.90;;;;;;4984505;28;20034;-82
2022/05/17 12:19:29;;;;;;;6.75;4.60;;;21.00;99.90;;;;;;4984543;28;20447;-82
2022/05/17 12:22:16;;;;;;;7.97;4.30;;;20.80;99.90;;;;;;4983950;28;20043;-82
2022/05/17 12:24:42;;;;;;;8.75;5.35;;;20.60;99.90;;;;;;4983074;28;20054;-81
2022/05/17 12:27:31;;;;;;;8.65;5.65;;;20.50;99.90;;;;;;4982221;28;20402;-81
2022/05/17 12:33:05;;;;;;;11.48;5.60;;;21.00;99.90;;;;;;4982814;28;20027;-81
2022/05/17 12:35:31;;;;;;;12.80;5.28;;;21.60;99.90;;;;;;4979340;28;20498;-82
2022/05/17 12:37:57;;;;;;;8.05;5.32;;;21.80;99.90;;;;;;4982126;28;20034;-80
2022/05/17 12:43:31;;;;;;;12.93;5.82;;;21.90;99.90;;;;;;4986454;28;20125;-81
2022/05/17 12:46:14;;;;;;;7.43;5.70;;;21.90;99.90;;;;;;4991082;28;20019;-83
2022/05/17 12:48:40;;;;;;;13.98;6.28;;;21.80;99.90;;;;;;4986544;28;20031;-80
2022/05/17 12:51:09;;;;;;;12.00;8.10;;;21.60;99.90;;;;;;4986149;28;20026;-81
2022/05/17 12:53:41;;;;;;;8.65;5.47;;;21.50;99.90;;;;;;4984759;28;20038;-82
2022/05/17 12:56:15;;;;;;;10.27;5.40;;;21.50;99.90;;;;;;4983695;28;20035;-81
2022/05/17 12:58:50;;;;;;;9.55;5.03;;;21.60;99.90;;;;;;4985709;28;20027;-82
2022/05/17 13:01:27;;;;;;;8.70;5.03;;;22.00;99.90;;;;;;4984388;28;20027;-83
2022/05/17 13:03:55;;;;;;;10.75;5.50;;;22.20;99.90;;;;;;4986058;28;20091;-83
2022/05/17 13:06:30;;;;;;;7.95;4.80;;;22.70;99.90;;;;;;4985228;28;20050;-84
2022/05/17 13:08:58;;;;;;;8.02;5.47;;;22.70;99.90;;;;;;4985664;28;20098;-83
2022/05/17 13:11:26;;;;;;;6.63;5.20;;;22.30;99.90;;;;;;4989404;28;20054;-81
2022/05/17 13:14:22;;;;;;;8.48;5.88;;;22.10;99.90;;;;;;4985217;28;20050;-82
2022/05/17 13:16:50;;;;;;;11.15;5.68;;;21.90;99.90;;;;;;4962475;28;20127;-83